sensor_id;sensor_type;location;lat;lon;timestamp;pressure;altitude;pressure_sealevel;temperature;humidity
41636;BME280;27623;51.966;4.602;2023-05-01T00:01:47;64566.50;;;14.00;73.38
41636;BME280;27623;51.966;4.602;2023-05-01T00:04:13;64585.50;;;14.08;73.88
41636;BME280;27623;51.966;4.602;2023-05-01T00:06:38;64591.75;;;14.02;73.29
41636;BME280;27623;51.966;4.602;2023-05-01T00:09:03;64600.69;;;14.05;73.75
41636;BME280;27623;51.966;4.602;2023-05-01T00:11:29;64633.38;;;14.19;73.64
41636;BME280;27623;51.966;4.602;2023-05-01T00:13:54;64624.22;;;14.20;74.13
41636;BME280;27623;51.966;4.602;2023-05-01T00:16:20;64570.50;;;14.06;75.06
41636;BME280;27623;51.966;4.602;2023-05-01T00:18:45;64630.88;;;14.12;74.57
41636;BME280;27623;51.966;4.602;2023-05-01T00:21:11;64636.00;;;14.12;73.28
41636;BME280;27623;51.966;4.602;2023-05-01T00:23:39;64615.22;;;14.24;72.76
41636;BME280;27623;51.966;4.602;2023-05-01T00:26:04;64606.16;;;14.10;72.69
41636;BME280;27623;51.966;4.602;2023-05-01T00:28:29;64632.44;;;14.21;71.94
41636;BME280;27623;51.966;4.602;2023-05-01T00:30:56;64584.66;;;13.95;73.75
41636;BME280;27623;51.966;4.602;2023-05-01T00:33:21;64593.19;;;14.08;73.05
41636;BME280;27623;51.966;4.602;2023-05-01T00:35:47;64597.75;;;14.07;72.51
41636;BME280;27623;51.966;4.602;2023-05-01T00:38:12;64585.44;;;14.15;72.35
41636;BME280;27623;51.966;4.602;2023-05-01T00:40:42;64641.50;;;14.10;73.35
41636;BME280;27623;51.966;4.602;2023-05-01T00:43:07;64611.28;;;14.10;73.91
41636;BME280;27623;51.966;4.602;2023-05-01T00:45:36;64588.09;;;14.01;75.06
41636;BME280;27623;51.966;4.602;2023-05-01T00:48:02;64584.41;;;13.76;76.12
41636;BME280;27623;51.966;4.602;2023-05-01T00:50:29;64589.59;;;13.93;75.54
41636;BME280;27623;51.966;4.602;2023-05-01T00:52:54;64590.69;;;13.94;75.30
41636;BME280;27623;51.966;4.602;2023-05-01T00:55:20;64547.63;;;13.77;75.19
41636;BME280;27623;51.966;4.602;2023-05-01T00:57:46;64596.25;;;13.85;75.14
41636;BME280;27623;51.966;4.602;2023-05-01T01:00:12;64593.44;;;13.96;74.11
41636;BME280;27623;51.966;4.602;2023-05-01T01:02:38;64598.13;;;14.05;73.05
41636;BME280;27623;51.966;4.602;2023-05-01T01:05:04;64614.47;;;13.97;73.45
41636;BME280;27623;51.966;4.602;2023-05-01T01:07:50;64598.13;;;14.05;73.33
41636;BME280;27623;51.966;4.602;2023-05-01T01:15:34;64604.00;;;14.01;72.87
41636;BME280;27623;51.966;4.602;2023-05-01T01:18:20;64595.75;;;14.08;71.92
41636;BME280;27623;51.966;4.602;2023-05-01T01:20:56;64602.13;;;14.12;72.84
41636;BME280;27623;51.966;4.602;2023-05-01T01:28:59;64598.94;;;13.94;72.73
41636;BME280;27623;51.966;4.602;2023-05-01T01:34:27;64625.78;;;14.05;71.82
41636;BME280;27623;51.966;4.602;2023-05-01T01:37:24;64597.94;;;14.10;71.55
41636;BME280;27623;51.966;4.602;2023-05-01T01:43:05;64613.13;;;14.07;72.30
41636;BME280;27623;51.966;4.602;2023-05-01T01:45:52;64583.25;;;14.13;71.76
41636;BME280;27623;51.966;4.602;2023-05-01T01:48:32;64640.56;;;14.12;72.25
41636;BME280;27623;51.966;4.602;2023-05-01T01:50:59;64593.00;;;14.05;73.13
41636;BME280;27623;51.966;4.602;2023-05-01T01:53:27;64611.28;;;14.10;72.74
41636;BME280;27623;51.966;4.602;2023-05-01T01:55:57;64619.66;;;14.14;72.00
41636;BME280;27623;51.966;4.602;2023-05-01T01:58:25;64624.13;;;14.03;72.26
41636;BME280;27623;51.966;4.602;2023-05-01T02:00:52;64606.38;;;14.06;71.88
41636;BME280;27623;51.966;4.602;2023-05-01T02:03:20;64590.47;;;13.98;71.99
41636;BME280;27623;51.966;4.602;2023-05-01T02:05:48;64562.38;;;13.91;72.74
41636;BME280;27623;51.966;4.602;2023-05-01T02:08:15;64578.38;;;14.01;71.61
41636;BME280;27623;51.966;4.602;2023-05-01T02:10:43;64588.81;;;14.04;71.17
41636;BME280;27623;51.966;4.602;2023-05-01T02:13:09;64618.47;;;14.03;70.88
41636;BME280;27623;51.966;4.602;2023-05-01T02:15:37;64593.97;;;13.97;71.05
41636;BME280;27623;51.966;4.602;2023-05-01T02:18:04;64592.16;;;13.93;70.20
41636;BME280;27623;51.966;4.602;2023-05-01T02:20:31;64582.16;;;13.88;71.03
41636;BME280;27623;51.966;4.602;2023-05-01T02:22:57;64593.00;;;13.74;71.64
41636;BME280;27623;51.966;4.602;2023-05-01T02:25:23;64566.69;;;13.71;71.67
41636;BME280;27623;51.966;4.602;2023-05-01T02:27:54;64583.31;;;13.75;71.89
41636;BME280;27623;51.966;4.602;2023-05-01T02:30:20;64589.31;;;13.81;73.40
41636;BME280;27623;51.966;4.602;2023-05-01T02:32:46;64544.03;;;13.69;73.80
41636;BME280;27623;51.966;4.602;2023-05-01T02:35:11;64563.16;;;13.80;73.40
41636;BME280;27623;51.966;4.602;2023-05-01T02:37:37;64561.81;;;13.60;74.25
41636;BME280;27623;51.966;4.602;2023-05-01T02:40:03;64530.22;;;13.54;75.42
41636;BME280;27623;51.966;4.602;2023-05-01T02:42:31;64538.16;;;13.43;74.83
41636;BME280;27623;51.966;4.602;2023-05-01T02:45:00;64522.34;;;13.28;75.03
41636;BME280;27623;51.966;4.602;2023-05-01T02:47:27;64515.78;;;13.22;75.79
41636;BME280;27623;51.966;4.602;2023-05-01T02:49:55;64486.53;;;13.21;75.66
41636;BME280;27623;51.966;4.602;2023-05-01T02:52:21;64528.31;;;13.33;75.42
41636;BME280;27623;51.966;4.602;2023-05-01T02:54:47;64516.06;;;13.34;75.27
41636;BME280;27623;51.966;4.602;2023-05-01T02:57:12;64522.09;;;13.32;75.11
41636;BME280;27623;51.966;4.602;2023-05-01T02:59:40;64510.13;;;13.21;75.94
41636;BME280;27623;51.966;4.602;2023-05-01T03:02:08;64511.28;;;13.39;74.86
41636;BME280;27623;51.966;4.602;2023-05-01T03:04:34;64537.34;;;13.54;73.82
41636;BME280;27623;51.966;4.602;2023-05-01T03:06:59;64589.06;;;13.61;72.78
41636;BME280;27623;51.966;4.602;2023-05-01T03:09:29;64582.84;;;13.60;72.83
41636;BME280;27623;51.966;4.602;2023-05-01T03:11:55;64559.09;;;13.57;72.60
41636;BME280;27623;51.966;4.602;2023-05-01T03:14:20;64519.66;;;13.49;74.29
41636;BME280;27623;51.966;4.602;2023-05-01T03:16:46;64514.06;;;13.34;74.30
41636;BME280;27623;51.966;4.602;2023-05-01T03:19:13;64523.47;;;13.22;75.73
41636;BME280;27623;51.966;4.602;2023-05-01T03:21:39;64532.03;;;13.27;74.85
41636;BME280;27623;51.966;4.602;2023-05-01T03:24:05;64547.22;;;13.25;74.71
41636;BME280;27623;51.966;4.602;2023-05-01T03:26:30;64499.91;;;13.45;73.76
41636;BME280;27623;51.966;4.602;2023-05-01T03:28:57;64538.19;;;13.35;73.92
41636;BME280;27623;51.966;4.602;2023-05-01T03:31:22;64535.75;;;13.45;73.43
41636;BME280;27623;51.966;4.602;2023-05-01T03:33:48;64524.34;;;13.27;73.99
41636;BME280;27623;51.966;4.602;2023-05-01T03:36:14;64504.69;;;13.40;72.95
41636;BME280;27623;51.966;4.602;2023-05-01T03:38:40;64520.63;;;13.33;73.58
41636;BME280;27623;51.966;4.602;2023-05-01T03:41:06;64511.84;;;13.39;73.17
41636;BME280;27623;51.966;4.602;2023-05-01T03:43:31;64519.34;;;13.37;73.56
41636;BME280;27623;51.966;4.602;2023-05-01T03:45:57;64571.16;;;13.54;72.24
41636;BME280;27623;51.966;4.602;2023-05-01T03:48:25;64530.59;;;13.52;72.57
41636;BME280;27623;51.966;4.602;2023-05-01T03:50:50;64538.16;;;13.43;72.53
41636;BME280;27623;51.966;4.602;2023-05-01T03:53:18;64539.81;;;13.37;72.97
41636;BME280;27623;51.966;4.602;2023-05-01T03:55:44;64504.38;;;13.35;73.20
41636;BME280;27623;51.966;4.602;2023-05-01T03:58:09;64522.66;;;13.33;73.22
41636;BME280;27623;51.966;4.602;2023-05-01T04:00:35;64506.97;;;13.28;72.92
41636;BME280;27623;51.966;4.602;2023-05-01T04:03:02;64537.31;;;13.30;73.50
41636;BME280;27623;51.966;4.602;2023-05-01T04:05:27;64532.56;;;13.28;73.46
41636;BME280;27623;51.966;4.602;2023-05-01T04:07:55;64483.09;;;13.15;74.74
41636;BME280;27623;51.966;4.602;2023-05-01T04:10:21;64504.47;;;13.14;74.66
41636;BME280;27623;51.966;4.602;2023-05-01T04:12:46;64472.66;;;13.13;75.73
41636;BME280;27623;51.966;4.602;2023-05-01T04:15:12;64522.03;;;13.16;77.80
41636;BME280;27623;51.966;4.602;2023-05-01T04:17:39;64509.78;;;13.16;77.93
41636;BME280;27623;51.966;4.602;2023-05-01T04:20:05;64500.09;;;13.17;77.08
41636;BME280;27623;51.966;4.602;2023-05-01T04:22:31;64502.09;;;13.16;76.27
41636;BME280;27623;51.966;4.602;2023-05-01T04:24:59;64477.97;;;13.15;76.36
41636;BME280;27623;51.966;4.602;2023-05-01T04:27:25;64501.91;;;13.21;76.31
41636;BME280;27623;51.966;4.602;2023-05-01T04:29:50;64523.84;;;13.20;76.34
41636;BME280;27623;51.966;4.602;2023-05-01T04:32:16;64480.47;;;13.29;76.54
41636;BME280;27623;51.966;4.602;2023-05-01T04:34:42;64475.59;;;13.11;77.55
41636;BME280;27623;51.966;4.602;2023-05-01T04:37:09;64490.09;;;13.05;77.61
41636;BME280;27623;51.966;4.602;2023-05-01T04:39:34;64522.66;;;13.33;76.15
41636;BME280;27623;51.966;4.602;2023-05-01T04:42:03;64521.69;;;13.41;74.64
41636;BME280;27623;51.966;4.602;2023-05-01T04:44:29;64484.69;;;13.24;75.98
41636;BME280;27623;51.966;4.602;2023-05-01T04:46:55;64507.94;;;13.19;76.51
41636;BME280;27623;51.966;4.602;2023-05-01T04:49:23;64462.69;;;13.01;78.32
41636;BME280;27623;51.966;4.602;2023-05-01T04:51:48;64499.94;;;13.07;77.62
41636;BME280;27623;51.966;4.602;2023-05-01T04:54:19;64495.56;;;13.03;78.04
41636;BME280;27623;51.966;4.602;2023-05-01T04:56:47;64448.78;;;13.07;79.43
41636;BME280;27623;51.966;4.602;2023-05-01T04:59:12;64481.63;;;13.16;78.75
41636;BME280;27623;51.966;4.602;2023-05-01T05:01:38;64499.00;;;13.16;78.64
41636;BME280;27623;51.966;4.602;2023-05-01T05:04:03;64522.91;;;13.21;77.40
41636;BME280;27623;51.966;4.602;2023-05-01T05:06:30;64516.44;;;13.32;76.87
41636;BME280;27623;51.966;4.602;2023-05-01T05:08:56;64529.63;;;13.30;77.08
41636;BME280;27623;51.966;4.602;2023-05-01T05:11:22;64527.69;;;13.16;77.58
41636;BME280;27623;51.966;4.602;2023-05-01T05:13:47;64497.75;;;13.05;78.16
41636;BME280;27623;51.966;4.602;2023-05-01T05:16:12;64459.56;;;13.07;78.02
41636;BME280;27623;51.966;4.602;2023-05-01T05:18:38;64492.41;;;13.09;78.36
41636;BME280;27623;51.966;4.602;2023-05-01T05:21:06;64500.22;;;13.26;76.51
41636;BME280;27623;51.966;4.602;2023-05-01T05:23:35;64522.03;;;13.16;77.75
41636;BME280;27623;51.966;4.602;2023-05-01T05:26:01;64495.50;;;13.17;78.46
41636;BME280;27623;51.966;4.602;2023-05-01T05:28:27;64509.94;;;13.19;78.79
41636;BME280;27623;51.966;4.602;2023-05-01T05:30:53;64451.47;;;13.17;78.38
41636;BME280;27623;51.966;4.602;2023-05-01T05:33:21;64496.25;;;13.13;78.86
41636;BME280;27623;51.966;4.602;2023-05-01T05:35:49;64469.94;;;13.10;80.20
41636;BME280;27623;51.966;4.602;2023-05-01T05:38:15;64481.25;;;13.11;80.28
41636;BME280;27623;51.966;4.602;2023-05-01T05:40:40;64497.16;;;13.12;80.51
41636;BME280;27623;51.966;4.602;2023-05-01T05:43:06;64543.59;;;13.17;81.80
41636;BME280;27623;51.966;4.602;2023-05-01T05:45:34;64468.69;;;13.06;82.15
41636;BME280;27623;51.966;4.602;2023-05-01T05:48:00;64513.72;;;13.29;79.95
41636;BME280;27623;51.966;4.602;2023-05-01T05:50:25;64532.47;;;13.42;78.33
41636;BME280;27623;51.966;4.602;2023-05-01T05:52:51;64547.03;;;13.53;79.20
41636;BME280;27623;51.966;4.602;2023-05-01T05:55:17;64535.59;;;13.43;78.91
41636;BME280;27623;51.966;4.602;2023-05-01T05:57:42;64542.28;;;13.51;79.38
41636;BME280;27623;51.966;4.602;2023-05-01T06:00:08;64535.84;;;13.62;77.30
41636;BME280;27623;51.966;4.602;2023-05-01T06:02:35;64524.28;;;13.65;77.79
41636;BME280;27623;51.966;4.602;2023-05-01T06:05:00;64573.28;;;13.70;76.20
41636;BME280;27623;51.966;4.602;2023-05-01T06:07:25;64578.44;;;13.63;76.57
41636;BME280;27623;51.966;4.602;2023-05-01T06:09:52;64546.06;;;13.62;76.28
41636;BME280;27623;51.966;4.602;2023-05-01T06:12:18;64585.69;;;13.72;76.77
41636;BME280;27623;51.966;4.602;2023-05-01T06:14:43;64557.69;;;13.75;74.86
41636;BME280;27623;51.966;4.602;2023-05-01T06:17:08;64530.31;;;13.71;73.92
41636;BME280;27623;51.966;4.602;2023-05-01T06:19:34;64556.66;;;13.67;75.20
41636;BME280;27623;51.966;4.602;2023-05-01T06:22:01;64587.00;;;13.69;74.88
41636;BME280;27623;51.966;4.602;2023-05-01T06:24:26;64576.78;;;13.69;74.32
41636;BME280;27623;51.966;4.602;2023-05-01T06:26:52;64560.44;;;13.77;74.04
41636;BME280;27623;51.966;4.602;2023-05-01T06:29:20;64601.19;;;13.82;73.28
41636;BME280;27623;51.966;4.602;2023-05-01T06:31:45;64601.16;;;13.89;71.58
41636;BME280;27623;51.966;4.602;2023-05-01T06:34:10;64579.03;;;13.88;72.87
41636;BME280;27623;51.966;4.602;2023-05-01T06:36:37;64604.59;;;13.95;71.37
41636;BME280;27623;51.966;4.602;2023-05-01T06:39:02;64592.16;;;13.93;71.33
41636;BME280;27623;51.966;4.602;2023-05-01T06:41:28;64573.53;;;13.90;71.41
41636;BME280;27623;51.966;4.602;2023-05-01T06:43:53;64586.38;;;13.83;71.33
41636;BME280;27623;51.966;4.602;2023-05-01T06:46:19;64594.41;;;13.88;72.03
41636;BME280;27623;51.966;4.602;2023-05-01T06:48:44;64604.84;;;13.83;72.29
41636;BME280;27623;51.966;4.602;2023-05-01T06:51:12;64605.31;;;13.98;73.20
41636;BME280;27623;51.966;4.602;2023-05-01T06:53:43;64582.63;;;13.96;71.65
41636;BME280;27623;51.966;4.602;2023-05-01T06:56:08;64609.56;;;13.92;69.74
41636;BME280;27623;51.966;4.602;2023-05-01T06:58:34;64597.84;;;13.93;69.44
41636;BME280;27623;51.966;4.602;2023-05-01T07:00:59;64582.44;;;13.69;69.72
41636;BME280;27623;51.966;4.602;2023-05-01T07:03:25;64599.16;;;13.90;69.13
41636;BME280;27623;51.966;4.602;2023-05-01T07:05:53;64607.38;;;13.90;69.84
41636;BME280;27623;51.966;4.602;2023-05-01T07:08:19;64603.97;;;14.08;69.72
41636;BME280;27623;51.966;4.602;2023-05-01T07:10:44;64594.03;;;13.90;68.49
41636;BME280;27623;51.966;4.602;2023-05-01T07:13:13;64601.75;;;13.83;69.14
41636;BME280;27623;51.966;4.602;2023-05-01T07:15:38;64562.28;;;13.74;70.06
41636;BME280;27623;51.966;4.602;2023-05-01T07:18:04;64556.22;;;13.76;70.60
41636;BME280;27623;51.966;4.602;2023-05-01T07:20:32;64587.69;;;13.79;70.51
41636;BME280;27623;51.966;4.602;2023-05-01T07:22:58;64575.41;;;13.80;71.20
41636;BME280;27623;51.966;4.602;2023-05-01T07:25:23;64594.78;;;13.86;69.74
41636;BME280;27623;51.966;4.602;2023-05-01T07:27:49;64598.59;;;13.89;69.14
41636;BME280;27623;51.966;4.602;2023-05-01T07:30:15;64598.88;;;14.01;69.59
41636;BME280;27623;51.966;4.602;2023-05-01T07:32:40;64590.25;;;14.10;69.61
41636;BME280;27623;51.966;4.602;2023-05-01T07:35:06;64590.28;;;14.03;70.74
41636;BME280;27623;51.966;4.602;2023-05-01T07:37:32;64601.50;;;13.94;71.95
41636;BME280;27623;51.966;4.602;2023-05-01T07:39:57;64581.59;;;13.88;72.25
41636;BME280;27623;51.966;4.602;2023-05-01T07:42:23;64560.38;;;13.85;71.83
41636;BME280;27623;51.966;4.602;2023-05-01T07:44:51;64589.44;;;13.90;72.41
41636;BME280;27623;51.966;4.602;2023-05-01T07:47:16;64591.25;;;13.94;73.09
41636;BME280;27623;51.966;4.602;2023-05-01T07:49:41;64597.25;;;14.00;72.61
41636;BME280;27623;51.966;4.602;2023-05-01T07:52:07;64600.72;;;13.98;72.12
41636;BME280;27623;51.966;4.602;2023-05-01T07:54:33;64611.72;;;13.94;72.47
41636;BME280;27623;51.966;4.602;2023-05-01T07:56:58;64582.13;;;14.19;73.37
41636;BME280;27623;51.966;4.602;2023-05-01T07:59:24;64624.88;;;14.30;72.77
41636;BME280;27623;51.966;4.602;2023-05-01T08:01:49;64671.59;;;14.24;73.75
41636;BME280;27623;51.966;4.602;2023-05-01T08:04:15;64628.78;;;14.20;74.44
41636;BME280;27623;51.966;4.602;2023-05-01T08:06:41;64643.97;;;14.24;72.93
41636;BME280;27623;51.966;4.602;2023-05-01T08:09:09;64633.88;;;14.27;72.72
41636;BME280;27623;51.966;4.602;2023-05-01T08:11:34;64653.63;;;14.31;73.74
41636;BME280;27623;51.966;4.602;2023-05-01T08:14:00;64634.00;;;14.36;73.67
41636;BME280;27623;51.966;4.602;2023-05-01T08:16:26;64649.09;;;14.24;74.38
41636;BME280;27623;51.966;4.602;2023-05-01T08:18:51;64659.84;;;14.32;73.14
41636;BME280;27623;51.966;4.602;2023-05-01T08:21:16;64660.59;;;14.28;73.99
41636;BME280;27623;51.966;4.602;2023-05-01T08:23:42;64652.84;;;14.35;73.02
41636;BME280;27623;51.966;4.602;2023-05-01T08:26:07;64632.13;;;14.39;72.45
41636;BME280;27623;51.966;4.602;2023-05-01T08:28:35;64681.97;;;14.40;73.22
41636;BME280;27623;51.966;4.602;2023-05-01T08:31:01;64670.44;;;14.37;73.78
41636;BME280;27623;51.966;4.602;2023-05-01T08:33:27;64623.91;;;14.39;74.08
41636;BME280;27623;51.966;4.602;2023-05-01T08:35:53;64635.09;;;14.37;73.09
41636;BME280;27623;51.966;4.602;2023-05-01T08:38:18;64667.38;;;14.29;73.12
41636;BME280;27623;51.966;4.602;2023-05-01T08:40:50;64639.13;;;14.36;72.80
41636;BME280;27623;51.966;4.602;2023-05-01T08:43:16;64647.06;;;14.25;71.36
41636;BME280;27623;51.966;4.602;2023-05-01T08:45:43;64635.31;;;14.33;72.30
41636;BME280;27623;51.966;4.602;2023-05-01T08:48:09;64675.00;;;14.36;72.92
41636;BME280;27623;51.966;4.602;2023-05-01T08:50:38;64660.00;;;14.41;74.03
41636;BME280;27623;51.966;4.602;2023-05-01T08:53:04;64686.50;;;14.47;73.92
41636;BME280;27623;51.966;4.602;2023-05-01T08:55:31;64657.00;;;14.51;73.97
41636;BME280;27623;51.966;4.602;2023-05-01T08:58:00;64679.72;;;14.53;73.26
41636;BME280;27623;51.966;4.602;2023-05-01T09:00:26;64663.16;;;14.59;73.36
41636;BME280;27623;51.966;4.602;2023-05-01T09:02:59;64682.56;;;14.65;73.37
41636;BME280;27623;51.966;4.602;2023-05-01T09:05:25;64684.38;;;14.69;72.72
41636;BME280;27623;51.966;4.602;2023-05-01T09:07:50;64687.41;;;14.76;72.65
41636;BME280;27623;51.966;4.602;2023-05-01T09:10:16;64704.78;;;14.83;72.39
41636;BME280;27623;51.966;4.602;2023-05-01T09:12:48;64714.66;;;14.85;71.24
41636;BME280;27623;51.966;4.602;2023-05-01T09:15:13;64706.22;;;14.89;71.55
41636;BME280;27623;51.966;4.602;2023-05-01T09:17:41;64706.69;;;14.97;71.94
41636;BME280;27623;51.966;4.602;2023-05-01T09:20:07;64732.31;;;15.04;71.71
41636;BME280;27623;51.966;4.602;2023-05-01T09:22:33;64740.75;;;15.07;72.46
41636;BME280;27623;51.966;4.602;2023-05-01T09:24:59;64745.31;;;15.06;73.02
41636;BME280;27623;51.966;4.602;2023-05-01T09:27:33;64764.56;;;15.10;73.69
41636;BME280;27623;51.966;4.602;2023-05-01T09:30:01;64744.41;;;15.08;73.98
41636;BME280;27623;51.966;4.602;2023-05-01T09:32:26;64750.78;;;15.11;72.80
41636;BME280;27623;51.966;4.602;2023-05-01T09:34:55;64738.56;;;15.05;72.28
41636;BME280;27623;51.966;4.602;2023-05-01T09:37:33;64727.19;;;15.04;71.93
41636;BME280;27623;51.966;4.602;2023-05-01T09:40:10;64697.69;;;15.00;71.62
41636;BME280;27623;51.966;4.602;2023-05-01T09:45:05;64694.66;;;14.93;73.25
41636;BME280;27623;51.966;4.602;2023-05-01T09:47:30;64693.75;;;14.87;73.14
41636;BME280;27623;51.966;4.602;2023-05-01T09:49:58;64713.19;;;14.86;74.52
41636;BME280;27623;51.966;4.602;2023-05-01T09:52:28;64697.09;;;14.83;75.70
41636;BME280;27623;51.966;4.602;2023-05-01T09:55:13;64717.28;;;14.78;76.96
41636;BME280;27623;51.966;4.602;2023-05-01T09:57:39;64703.34;;;14.77;79.58
41636;BME280;27623;51.966;4.602;2023-05-01T10:00:05;64733.03;;;14.76;81.59
41636;BME280;27623;51.966;4.602;2023-05-01T10:02:32;64714.13;;;14.85;83.47
41636;BME280;27623;51.966;4.602;2023-05-01T10:04:59;64701.94;;;14.71;84.42
41636;BME280;27623;51.966;4.602;2023-05-01T10:07:25;64682.97;;;14.56;86.83
41636;BME280;27623;51.966;4.602;2023-05-01T10:09:53;64667.19;;;14.58;88.03
41636;BME280;27623;51.966;4.602;2023-05-01T10:12:28;64679.34;;;14.55;89.86
41636;BME280;27623;51.966;4.602;2023-05-01T10:14:57;64670.03;;;14.46;91.51
41636;BME280;27623;51.966;4.602;2023-05-01T10:17:23;64652.47;;;14.44;93.82
41636;BME280;27623;51.966;4.602;2023-05-01T10:19:49;64653.00;;;14.44;94.89
41636;BME280;27623;51.966;4.602;2023-05-01T10:22:17;64634.22;;;14.32;94.51
41636;BME280;27623;51.966;4.602;2023-05-01T10:24:42;64655.59;;;14.37;95.44
41636;BME280;27623;51.966;4.602;2023-05-01T10:27:11;64631.09;;;14.31;96.75
41636;BME280;27623;51.966;4.602;2023-05-01T10:29:39;64641.94;;;14.25;98.25
41636;BME280;27623;51.966;4.602;2023-05-01T10:32:06;64629.69;;;14.25;99.44
41636;BME280;27623;51.966;4.602;2023-05-01T10:34:38;64638.56;;;14.12;100.00
41636;BME280;27623;51.966;4.602;2023-05-01T10:37:17;64636.53;;;14.13;100.00
41636;BME280;27623;51.966;4.602;2023-05-01T10:39:43;64605.06;;;14.09;100.00
41636;BME280;27623;51.966;4.602;2023-05-01T10:42:10;64626.66;;;14.10;100.00
41636;BME280;27623;51.966;4.602;2023-05-01T10:44:39;64596.31;;;14.01;100.00
41636;BME280;27623;51.966;4.602;2023-05-01T10:55:45;64611.50;;;14.06;100.00
41636;BME280;27623;51.966;4.602;2023-05-01T10:58:53;64603.44;;;14.08;100.00
41636;BME280;27623;51.966;4.602;2023-05-01T11:03:57;64603.63;;;14.03;100.00
41636;BME280;27623;51.966;4.602;2023-05-01T11:06:25;64623.38;;;14.07;100.00
41636;BME280;27623;51.966;4.602;2023-05-01T11:08:53;64621.91;;;14.08;100.00
41636;BME280;27623;51.966;4.602;2023-05-01T11:14:04;64635.75;;;14.17;100.00
41636;BME280;27623;51.966;4.602;2023-05-01T11:19:07;64634.13;;;14.15;100.00
41636;BME280;27623;51.966;4.602;2023-05-01T11:21:35;64636.63;;;14.29;100.00
41636;BME280;27623;51.966;4.602;2023-05-01T11:24:05;64634.44;;;14.27;100.00
41636;BME280;27623;51.966;4.602;2023-05-01T11:26:31;64650.47;;;14.37;100.00
41636;BME280;27623;51.966;4.602;2023-05-01T11:29:00;64661.81;;;14.38;100.00
41636;BME280;27623;51.966;4.602;2023-05-01T11:31:26;64713.06;;;14.46;100.00
41636;BME280;27623;51.966;4.602;2023-05-01T11:33:55;64686.47;;;14.54;100.00
41636;BME280;27623;51.966;4.602;2023-05-01T11:36:21;64699.91;;;14.71;100.00
41636;BME280;27623;51.966;4.602;2023-05-01T11:38:53;64701.88;;;14.78;100.00
41636;BME280;27623;51.966;4.602;2023-05-01T11:41:21;64718.06;;;14.98;100.00
41636;BME280;27623;51.966;4.602;2023-05-01T11:43:57;64740.03;;;15.04;100.00
41636;BME280;27623;51.966;4.602;2023-05-01T11:46:30;64746.56;;;15.17;100.00
41636;BME280;27623;51.966;4.602;2023-05-01T11:48:57;64755.44;;;15.28;100.00
41636;BME280;27623;51.966;4.602;2023-05-01T11:51:23;64781.09;;;15.35;100.00
41636;BME280;27623;51.966;4.602;2023-05-01T11:54:06;64826.47;;;15.53;100.00
41636;BME280;27623;51.966;4.602;2023-05-01T11:56:33;64827.69;;;15.64;100.00
41636;BME280;27623;51.966;4.602;2023-05-01T11:59:08;64842.47;;;15.77;100.00
41636;BME280;27623;51.966;4.602;2023-05-01T12:01:41;64838.53;;;15.88;100.00
41636;BME280;27623;51.966;4.602;2023-05-01T12:04:09;64876.88;;;15.93;100.00
41636;BME280;27623;51.966;4.602;2023-05-01T12:06:42;64865.59;;;16.01;100.00
41636;BME280;27623;51.966;4.602;2023-05-01T12:09:10;64916.31;;;16.22;100.00
41636;BME280;27623;51.966;4.602;2023-05-01T12:11:39;64930.53;;;16.42;100.00
41636;BME280;27623;51.966;4.602;2023-05-01T12:14:05;64922.25;;;16.42;98.14
41636;BME280;27623;51.966;4.602;2023-05-01T12:16:31;64926.22;;;16.55;96.43
41636;BME280;27623;51.966;4.602;2023-05-01T12:18:57;64924.34;;;16.58;95.34
41636;BME280;27623;51.966;4.602;2023-05-01T12:21:25;64973.13;;;16.79;94.56
41636;BME280;27623;51.966;4.602;2023-05-01T12:23:52;64989.16;;;17.21;92.91
41636;BME280;27623;51.966;4.602;2023-05-01T12:26:22;65028.66;;;17.50;93.08
41636;BME280;27623;51.966;4.602;2023-05-01T12:29:02;65049.78;;;17.81;91.96
41636;BME280;27623;51.966;4.602;2023-05-01T12:31:28;65135.69;;;18.18;90.21
41636;BME280;27623;51.966;4.602;2023-05-01T12:33:55;65194.19;;;18.53;84.97
41636;BME280;27623;51.966;4.602;2023-05-01T12:36:25;65208.06;;;18.92;83.75
41636;BME280;27623;51.966;4.602;2023-05-01T12:38:58;65286.59;;;19.24;80.78
41636;BME280;27623;51.966;4.602;2023-05-01T12:41:40;65279.41;;;19.25;79.65
41636;BME280;27623;51.966;4.602;2023-05-01T12:46:46;65151.56;;;18.57;75.84
41636;BME280;27623;51.966;4.602;2023-05-01T12:49:17;65187.88;;;18.35;77.31
41636;BME280;27623;51.966;4.602;2023-05-01T12:51:52;65157.41;;;18.19;76.28
41636;BME280;27623;51.966;4.602;2023-05-01T12:54:20;65106.38;;;17.96;76.01
41636;BME280;27623;51.966;4.602;2023-05-01T12:56:45;65092.19;;;17.75;77.56
41636;BME280;27623;51.966;4.602;2023-05-01T12:59:31;65037.88;;;17.49;77.62
41636;BME280;27623;51.966;4.602;2023-05-01T13:02:01;65057.94;;;17.48;80.83
41636;BME280;27623;51.966;4.602;2023-05-01T13:04:27;65039.31;;;17.31;82.41
41636;BME280;27623;51.966;4.602;2023-05-01T13:06:53;65002.91;;;17.26;81.52
41636;BME280;27623;51.966;4.602;2023-05-01T13:09:26;65045.00;;;17.32;81.98
41636;BME280;27623;51.966;4.602;2023-05-01T13:11:59;65053.84;;;17.57;82.08
41636;BME280;27623;51.966;4.602;2023-05-01T13:14:25;65068.81;;;17.97;80.85
41636;BME280;27623;51.966;4.602;2023-05-01T13:16:51;65186.56;;;18.39;75.21
41636;BME280;27623;51.966;4.602;2023-05-01T13:19:28;65229.63;;;18.74;75.83
41636;BME280;27623;51.966;4.602;2023-05-01T13:21:57;65235.00;;;18.93;72.20
41636;BME280;27623;51.966;4.602;2023-05-01T13:24:39;65249.53;;;18.78;67.03
41636;BME280;27623;51.966;4.602;2023-05-01T13:27:09;65230.09;;;18.65;65.95
41636;BME280;27623;51.966;4.602;2023-05-01T13:29:35;65173.81;;;18.41;67.06
41636;BME280;27623;51.966;4.602;2023-05-01T13:32:05;65132.97;;;18.08;66.05
41636;BME280;27623;51.966;4.602;2023-05-01T13:34:34;65140.25;;;18.01;70.32
41636;BME280;27623;51.966;4.602;2023-05-01T13:37:03;65095.44;;;17.85;70.20
41636;BME280;27623;51.966;4.602;2023-05-01T13:39:30;65071.41;;;17.73;71.97
41636;BME280;27623;51.966;4.602;2023-05-01T13:41:56;65019.44;;;17.51;71.04